Time;durP1;ratioP1;P1;durP2;ratioP2;P2;SDS_P1;SDS_P2;PMS_P1;PMS_P2;Temp;Humidity;BMP_temperature;BMP_pressure;BME280_temperature;BME280_humidity;BME280_pressure;Samples;Min_cycle;Max_cycle;Signal;HPM_P1;HPM_P2
2021/05/23 00:01:46;;;;;;;9.73;4.60;;;;;;;15.24;59.25;99191.98;129839;1101;23093;-60
2021/05/23 00:04:15;;;;;;;9.95;4.53;;;;;;;15.19;59.47;99192.87;129880;1101;22591;-60
2021/05/23 00:06:45;;;;;;;7.15;3.50;;;;;;;15.18;59.66;99195.91;129914;1101;22711;-60
2021/05/23 00:09:14;;;;;;;4.00;2.20;;;;;;;15.16;60.16;99200.88;129932;1101;23277;-60
2021/05/23 00:11:42;;;;;;;7.13;2.18;;;;;;;15.13;60.68;99206.97;129849;1101;22622;-60
2021/05/23 00:14:11;;;;;;;2.98;2.50;;;;;;;15.11;61.48;99211.94;129904;1101;22825;-60
2021/05/23 00:16:39;;;;;;;5.40;2.35;;;;;;;15.09;62.64;99206.73;127077;1101;22787;-60
2021/05/23 00:19:08;;;;;;;4.78;2.43;;;;;;;15.07;63.21;99205.40;129662;1104;23405;-60
2021/05/23 00:21:36;;;;;;;3.00;2.25;;;;;;;15.03;63.72;99196.11;129901;1101;22539;-59
2021/05/23 00:24:05;;;;;;;3.50;2.43;;;;;;;14.96;64.80;99201.16;129883;1101;22596;-60
2021/05/23 00:26:33;;;;;;;4.98;2.00;;;;;;;14.90;65.36;99188.61;129873;1102;23480;-61
2021/05/23 00:29:07;;;;;;;4.60;2.15;;;;;;;14.83;65.76;99189.80;129677;1103;23369;-60
2021/05/23 00:31:35;;;;;;;4.88;2.33;;;;;;;14.78;66.62;99194.53;129904;1101;22572;-60
2021/05/23 00:34:03;;;;;;;6.40;2.03;;;;;;;14.75;66.97;99192.36;129900;1101;22554;-59
2021/05/23 00:36:33;;;;;;;5.30;2.23;;;;;;;14.70;67.58;99190.52;129934;1101;22644;-61
2021/05/23 00:39:03;;;;;;;6.55;2.55;;;;;;;14.67;68.38;99187.55;129780;1101;22620;-60
2021/05/23 00:41:32;;;;;;;5.28;2.40;;;;;;;14.61;68.59;99192.26;129850;1101;22735;-60
2021/05/23 00:44:01;;;;;;;10.73;3.45;;;;;;;14.58;69.15;99187.35;129899;1101;22979;-60
2021/05/23 00:46:29;;;;;;;7.00;4.05;;;;;;;14.55;69.57;99192.63;129657;1104;22574;-60
2021/05/23 00:48:57;;;;;;;4.13;3.10;;;;;;;14.54;70.62;99190.99;129797;1101;22637;-63
2021/05/23 00:51:26;;;;;;;8.38;3.90;;;;;;;14.52;70.91;99196.77;129929;1101;22645;-60
2021/05/23 00:53:54;;;;;;;7.73;3.93;;;;;;;14.51;71.23;99203.36;129879;1101;23519;-61
2021/05/23 00:56:25;;;;;;;5.30;3.70;;;;;;;14.45;71.57;99205.32;129891;1101;22675;-60
2021/05/23 00:58:53;;;;;;;5.90;3.58;;;;;;;14.41;72.05;99207.03;129690;1102;22585;-60
2021/05/23 01:01:54;;;;;;;5.98;2.90;;;;;;;14.38;71.97;99207.58;129877;1101;23292;-61
2021/05/23 01:04:23;;;;;;;6.70;2.60;;;;;;;14.32;72.37;99208.72;129539;1104;22603;-60
2021/05/23 01:06:51;;;;;;;8.20;3.18;;;;;;;14.29;72.82;99205.74;129504;1104;22540;-60
2021/05/23 01:09:19;;;;;;;5.13;1.93;;;;;;;14.25;73.06;99204.70;129212;1107;22595;-60
2021/05/23 01:11:49;;;;;;;4.23;2.15;;;;;;;14.22;73.17;99195.14;129473;1104;22546;-61
2021/05/23 01:14:41;;;;;;;9.20;2.00;;;;;;;14.20;73.74;99202.83;129465;1104;22611;-61
2021/05/23 01:17:11;;;;;;;4.48;2.95;;;;;;;14.16;74.12;99197.10;129268;1104;22565;-61
2021/05/23 01:19:57;;;;;;;3.63;2.48;;;;;;;14.16;73.96;99207.24;129552;1104;23683;-60
2021/05/23 01:22:41;;;;;;;5.33;2.53;;;;;;;14.15;74.80;99203.69;129264;1105;23661;-60
2021/05/23 01:25:19;;;;;;;3.40;2.17;;;;;;;14.18;74.72;99209.70;129228;1105;22606;-60
2021/05/23 01:27:52;;;;;;;4.23;2.60;;;;;;;14.17;75.22;99211.62;129141;1108;22542;-61
2021/05/23 01:30:25;;;;;;;10.30;2.55;;;;;;;14.18;75.63;99217.91;129230;1104;23349;-61
2021/05/23 01:32:59;;;;;;;5.58;2.65;;;;;;;14.18;75.44;99215.99;129600;1104;23464;-60
2021/05/23 01:35:32;;;;;;;8.83;2.40;;;;;;;14.18;75.69;99218.73;129525;1104;22563;-60
2021/05/23 01:38:01;;;;;;;4.18;2.35;;;;;;;14.16;76.31;99224.50;129517;1104;23580;-60
2021/05/23 01:40:33;;;;;;;5.45;3.00;;;;;;;14.16;75.95;99218.20;129589;1102;22674;-60
2021/05/23 01:43:02;;;;;;;4.70;3.15;;;;;;;14.14;76.03;99223.97;129919;1101;22573;-61
2021/05/23 01:45:32;;;;;;;4.98;3.20;;;;;;;14.14;76.10;99225.89;129807;1102;22603;-60
2021/05/23 01:48:02;;;;;;;8.28;3.68;;;;;;;14.12;76.50;99233.61;129940;1101;22589;-60
2021/05/23 01:50:31;;;;;;;11.00;3.63;;;;;;;14.09;76.10;99228.70;129779;1101;23150;-60
2021/05/23 01:53:02;;;;;;;4.63;2.78;;;;;;;14.08;76.66;99232.54;129874;1101;22550;-63
2021/05/23 01:55:31;;;;;;;3.90;2.98;;;;;;;14.06;76.50;99232.83;129900;1101;22575;-61
2021/05/23 01:58:10;;;;;;;5.23;3.28;;;;;;;14.05;76.37;99235.84;129916;1101;23500;-60
2021/05/23 02:00:49;;;;;;;4.75;2.70;;;;;;;14.03;77.08;99235.31;129679;1104;22610;-61
2021/05/23 02:03:19;;;;;;;4.60;2.55;;;;;;;14.02;76.80;99239.16;129929;1101;22522;-61
2021/05/23 02:05:50;;;;;;;5.15;2.60;;;;;;;14.01;77.23;99251.21;129810;1101;22657;-61
2021/05/23 02:08:19;;;;;;;5.28;2.88;;;;;;;14.00;77.36;99246.84;129926;1101;22562;-62
2021/05/23 02:10:48;;;;;;;3.08;2.38;;;;;;;13.98;76.91;99255.37;129826;1101;22559;-60
2021/05/23 02:13:18;;;;;;;4.60;3.10;;;;;;;13.98;77.19;99249.89;129901;1101;22590;-60
2021/05/23 02:15:48;;;;;;;3.40;2.38;;;;;;;13.97;77.20;99259.21;128764;1101;22772;-60
2021/05/23 02:18:17;;;;;;;3.13;2.30;;;;;;;13.97;77.29;99252.91;129796;1101;23305;-60
2021/05/23 02:20:46;;;;;;;3.80;2.45;;;;;;;13.96;77.60;99262.23;129670;1104;22608;-60
2021/05/23 02:23:22;;;;;;;6.85;3.03;;;;;;;13.94;77.86;99262.52;129803;1101;22596;-59
2021/05/23 02:25:51;;;;;;;6.88;2.75;;;;;;;13.94;77.59;99261.70;129877;1101;22525;-60
2021/05/23 02:28:20;;;;;;;4.25;2.50;;;;;;;13.94;77.63;99268.00;129839;1101;23199;-60
2021/05/23 02:30:50;;;;;;;4.38;2.90;;;;;;;13.95;77.42;99272.38;129893;1101;22644;-62
2021/05/23 02:33:19;;;;;;;6.45;2.30;;;;;;;13.96;78.24;99264.97;129892;1101;22626;-63
2021/05/23 02:35:49;;;;;;;6.58;2.75;;;;;;;13.94;78.28;99270.73;129711;1102;22678;-59
2021/05/23 02:38:18;;;;;;;3.18;2.48;;;;;;;13.96;78.20;99278.67;129858;1101;22564;-60
2021/05/23 02:40:46;;;;;;;7.40;2.80;;;;;;;13.95;77.97;99271.55;129890;1101;23324;-62
2021/05/23 02:43:15;;;;;;;3.25;2.35;;;;;;;13.94;78.10;99270.73;129849;1101;22609;-60
2021/05/23 02:45:53;;;;;;;4.08;2.13;;;;;;;13.96;77.93;99282.22;128618;1101;25398;-60
2021/05/23 02:48:22;;;;;;;4.20;2.38;;;;;;;13.96;77.93;99281.41;129872;1101;22570;-59
2021/05/23 02:50:51;;;;;;;4.05;2.73;;;;;;;13.96;78.06;99279.48;129902;1101;23658;-60
2021/05/23 02:53:20;;;;;;;6.60;2.20;;;;;;;13.98;78.27;99268.25;129844;1101;23613;-59
2021/05/23 02:55:49;;;;;;;4.53;2.43;;;;;;;13.98;78.09;99270.98;129926;1101;22539;-60
2021/05/23 02:58:17;;;;;;;4.70;2.30;;;;;;;13.99;77.89;99273.44;129881;1101;23405;-59
2021/05/23 03:00:48;;;;;;;4.58;2.75;;;;;;;13.99;78.11;99273.44;129817;1101;22545;-60
2021/05/23 03:03:16;;;;;;;3.35;2.25;;;;;;;14.00;78.14;99279.70;129840;1101;22573;-60
2021/05/23 03:05:45;;;;;;;2.43;2.23;;;;;;;14.00;77.91;99280.53;129910;1101;22557;-60
2021/05/23 03:08:15;;;;;;;6.00;2.15;;;;;;;14.00;78.19;99274.23;129786;1101;22604;-60
2021/05/23 03:10:51;;;;;;;6.40;2.40;;;;;;;13.99;78.20;99275.36;129899;1101;23131;-60
2021/05/23 03:13:19;;;;;;;3.23;2.20;;;;;;;13.99;78.51;99284.41;129857;1101;22621;-60
2021/05/23 03:15:48;;;;;;;4.70;2.53;;;;;;;13.98;78.47;99277.28;129929;1101;22648;-62
2021/05/23 03:18:17;;;;;;;5.03;2.20;;;;;;;14.00;78.00;99274.23;129870;1101;22624;-59
2021/05/23 03:20:58;;;;;;;4.23;2.25;;;;;;;14.00;78.17;99279.70;129861;1101;22731;-59
2021/05/23 03:23:26;;;;;;;3.55;2.23;;;;;;;14.01;78.36;99286.83;129844;1101;23531;-63
2021/05/23 03:25:54;;;;;;;5.45;2.60;;;;;;;14.02;78.36;99289.28;129668;1101;22570;-59
2021/05/23 03:28:23;;;;;;;5.10;2.78;;;;;;;14.03;78.34;99288.18;129859;1101;23439;-60
2021/05/23 03:30:51;;;;;;;5.13;3.85;;;;;;;14.05;78.21;99293.38;129788;1101;22602;-59
2021/05/23 03:33:20;;;;;;;4.80;2.65;;;;;;;14.07;78.29;99291.17;129844;1101;23002;-60
2021/05/23 03:35:48;;;;;;;5.23;3.18;;;;;;;14.08;78.16;99287.33;129882;1101;22585;-60
2021/05/23 03:38:16;;;;;;;5.90;2.63;;;;;;;14.11;78.33;99295.80;129961;1101;22650;-59
2021/05/23 03:40:45;;;;;;;5.13;3.60;;;;;;;14.14;78.51;99299.87;129898;1101;23217;-62
2021/05/23 03:43:13;;;;;;;5.65;3.20;;;;;;;14.17;78.16;99296.55;129868;1101;22605;-63
2021/05/23 03:45:42;;;;;;;6.85;3.93;;;;;;;14.22;78.37;99298.45;129886;1101;22662;-60
2021/05/23 03:48:10;;;;;;;5.75;4.50;;;;;;;14.24;78.48;99310.77;129812;1101;22661;-59
2021/05/23 03:50:39;;;;;;;5.03;4.23;;;;;;;14.27;78.51;99307.45;129834;1101;22573;-60
2021/05/23 03:53:07;;;;;;;5.45;3.88;;;;;;;14.32;78.31;99309.31;129827;1101;23654;-60
2021/05/23 03:55:37;;;;;;;5.33;3.43;;;;;;;14.36;77.95;99310.38;129918;1101;23173;-59
2021/05/23 03:58:07;;;;;;;7.43;2.83;;;;;;;14.38;78.17;99314.47;129876;1101;22557;-60
2021/05/23 04:00:36;;;;;;;3.38;2.45;;;;;;;14.44;77.96;99312.52;129857;1101;22732;-59
2021/05/23 04:03:04;;;;;;;9.90;2.70;;;;;;;14.47;77.49;99312.77;129938;1101;22557;-59
2021/05/23 04:08:02;;;;;;;4.57;2.37;;;;;;;14.50;77.03;99328.64;125614;1090;22743;-61
2021/05/23 04:10:38;;;;;;;4.23;2.33;;;;;;;14.54;76.95;99331.63;125128;1101;23237;-60
2021/05/23 04:13:09;;;;;;;2.60;2.35;;;;;;;14.60;77.07;99337.87;129931;1101;23394;-60
2021/05/23 04:15:41;;;;;;;4.25;2.68;;;;;;;14.65;77.12;99341.39;129925;1101;22578;-60
2021/05/23 04:18:09;;;;;;;5.13;2.58;;;;;;;14.69;76.68;99342.45;129983;1101;22532;-60
2021/05/23 04:20:38;;;;;;;3.23;2.03;;;;;;;14.74;76.72;99355.28;129913;1101;22745;-60
2021/05/23 04:23:06;;;;;;;10.10;4.25;;;;;;;14.74;76.36;99353.36;129997;1101;22621;-60
2021/05/23 04:25:35;;;;;;;4.53;2.43;;;;;;;14.77;76.25;99360.19;129864;1101;22523;-60
2021/05/23 04:28:03;;;;;;;3.13;2.20;;;;;;;14.78;75.61;99359.09;129673;1101;22546;-60
2021/05/23 04:30:32;;;;;;;3.68;2.43;;;;;;;14.78;75.46;99359.09;129910;1101;22658;-60
2021/05/23 04:33:02;;;;;;;4.15;2.43;;;;;;;14.79;74.99;99357.98;129969;1101;23438;-61
2021/05/23 04:35:31;;;;;;;5.48;3.23;;;;;;;14.81;75.01;99355.77;129987;1101;23753;-60
2021/05/23 04:38:01;;;;;;;4.93;2.55;;;;;;;14.82;74.91;99354.67;129929;1101;22582;-63
2021/05/23 04:40:29;;;;;;;5.70;3.70;;;;;;;14.82;74.90;99355.48;129996;1101;23101;-60
2021/05/23 04:42:57;;;;;;;3.13;2.50;;;;;;;14.81;74.30;99358.52;129920;1101;22678;-60
2021/05/23 04:45:35;;;;;;;3.83;2.40;;;;;;;14.83;74.16;99364.53;129864;1101;22678;-61
2021/05/23 04:48:04;;;;;;;2.73;2.18;;;;;;;14.83;73.80;99379.06;129977;1101;23348;-60
2021/05/23 04:50:32;;;;;;;5.15;3.20;;;;;;;14.84;73.70;99383.45;129971;1101;22673;-60
2021/05/23 04:53:01;;;;;;;3.63;2.50;;;;;;;14.89;73.93;99381.73;129950;1101;22640;-61
2021/05/23 04:55:30;;;;;;;3.85;3.18;;;;;;;14.94;73.76;99373.47;130004;1101;22503;-60
2021/05/23 04:57:58;;;;;;;6.00;2.58;;;;;;;15.04;73.99;99378.84;129914;1101;22624;-60
2021/05/23 05:00:27;;;;;;;2.75;2.05;;;;;;;15.15;73.22;99364.71;130011;1101;24071;-60
2021/05/23 05:02:56;;;;;;;2.85;1.75;;;;;;;15.30;72.11;99363.72;129921;1101;22534;-60
2021/05/23 05:05:24;;;;;;;3.33;1.53;;;;;;;15.44;71.60;99370.13;129945;1101;22679;-60
2021/05/23 05:07:52;;;;;;;3.65;2.10;;;;;;;15.66;71.36;99361.38;129829;1102;23169;-58
2021/05/23 05:10:21;;;;;;;3.78;1.85;;;;;;;15.97;70.52;99361.77;129995;1101;22593;-59
2021/05/23 05:12:49;;;;;;;3.33;1.58;;;;;;;16.33;69.39;99363.96;129913;1101;22662;-59
2021/05/23 05:15:18;;;;;;;3.05;1.40;;;;;;;16.68;68.32;99362.59;130019;1101;22526;-59
2021/05/23 05:17:47;;;;;;;2.00;1.40;;;;;;;17.06;66.54;99363.25;129943;1101;22613;-58
2021/05/23 05:20:15;;;;;;;3.73;1.70;;;;;;;17.40;65.53;99371.13;129952;1101;22593;-59
2021/05/23 05:22:43;;;;;;;4.30;1.47;;;;;;;17.74;64.02;99366.03;129848;1101;22755;-61
2021/05/23 05:25:12;;;;;;;5.50;1.80;;;;;;;18.03;62.68;99366.45;129961;1101;23444;-61
2021/05/23 05:27:41;;;;;;;5.13;1.65;;;;;;;18.30;61.71;99373.84;129680;1102;22651;-58
2021/05/23 05:30:10;;;;;;;6.75;1.63;;;;;;;18.55;60.52;99379.85;129998;1101;23110;-58
2021/05/23 05:32:38;;;;;;;2.53;1.58;;;;;;;18.69;59.58;99375.92;130013;1101;23180;-60
2021/05/23 05:35:11;;;;;;;2.78;1.80;;;;;;;18.75;59.62;99371.10;129931;1101;23219;-59
2021/05/23 05:37:39;;;;;;;2.45;1.70;;;;;;;18.84;59.24;99382.19;130000;1101;22569;-60
2021/05/23 05:40:08;;;;;;;2.98;1.58;;;;;;;18.84;59.02;99382.19;130001;1101;22562;-59
2021/05/23 05:42:37;;;;;;;2.95;1.45;;;;;;;18.80;58.29;99392.22;129981;1101;23234;-61
2021/05/23 05:45:06;;;;;;;2.45;1.50;;;;;;;18.77;58.37;99387.32;129973;1101;22610;-58
2021/05/23 05:47:36;;;;;;;2.95;1.63;;;;;;;18.80;58.59;99389.45;130011;1101;22538;-59
2021/05/23 05:50:05;;;;;;;1.83;1.55;;;;;;;18.80;57.46;99393.03;129900;1101;22559;-58
2021/05/23 05:52:33;;;;;;;1.30;1.20;;;;;;;18.81;57.22;99393.84;130004;1101;22522;-58
2021/05/23 05:55:02;;;;;;;2.75;1.83;;;;;;;18.84;57.14;99395.98;129989;1101;22566;-59
2021/05/23 05:57:30;;;;;;;7.60;2.00;;;;;;;18.86;56.71;99394.55;130015;1101;22656;-59
2021/05/23 05:59:59;;;;;;;1.73;1.63;;;;;;;18.86;56.54;99394.55;129945;1101;22640;-59
2021/05/23 06:02:27;;;;;;;1.70;1.40;;;;;;;18.85;56.57;99392.91;129965;1101;22581;-60
2021/05/23 06:04:56;;;;;;;3.88;1.50;;;;;;;18.81;56.97;99405.70;129917;1101;22630;-60
2021/05/23 06:07:24;;;;;;;3.50;1.28;;;;;;;18.71;56.84;99406.79;129993;1101;22577;-68
2021/05/23 06:09:53;;;;;;;2.33;1.85;;;;;;;18.59;56.86;99411.25;129951;1101;22542;-68
2021/05/23 06:12:22;;;;;;;2.70;1.60;;;;;;;18.47;56.73;99419.21;129968;1101;22571;-67
2021/05/23 06:14:52;;;;;;;3.98;1.50;;;;;;;18.30;57.06;99412.45;130009;1101;22570;-67
2021/05/23 06:17:20;;;;;;;3.00;1.73;;;;;;;18.21;57.76;99413.48;129940;1101;23442;-68
2021/05/23 06:19:49;;;;;;;3.18;1.75;;;;;;;18.12;57.53;99416.17;129874;1101;22640;-67
2021/05/23 06:22:18;;;;;;;4.30;2.05;;;;;;;18.02;57.96;99410.90;129952;1101;22550;-66
2021/05/23 06:24:46;;;;;;;2.10;1.58;;;;;;;17.96;58.41;99418.45;129806;1102;22799;-67
2021/05/23 06:27:15;;;;;;;5.68;2.05;;;;;;;17.92;57.92;99420.19;129940;1101;23016;-67
2021/05/23 06:29:45;;;;;;;2.10;1.45;;;;;;;17.83;57.35;99424.80;129944;1101;22645;-68
2021/05/23 06:32:14;;;;;;;6.23;2.35;;;;;;;17.72;57.31;99423.39;129937;1101;22572;-67
2021/05/23 06:34:42;;;;;;;2.08;1.70;;;;;;;17.62;57.79;99423.55;129947;1101;24411;-67
2021/05/23 06:37:11;;;;;;;2.00;1.70;;;;;;;17.57;58.32;99420.92;126121;1096;26223;-68
2021/05/23 06:39:40;;;;;;;3.90;1.73;;;;;;;17.54;59.55;99418.77;125303;1101;24436;-70
2021/05/23 06:42:09;;;;;;;2.68;1.48;;;;;;;17.55;59.93;99421.22;129870;1101;23516;-67
2021/05/23 06:44:38;;;;;;;3.83;1.93;;;;;;;17.55;59.42;99417.66;129985;1101;22557;-67
2021/05/23 06:47:06;;;;;;;3.88;2.03;;;;;;;17.50;58.77;99424.06;129826;1101;22577;-67
2021/05/23 06:49:35;;;;;;;4.98;1.73;;;;;;;17.44;57.95;99424.49;129995;1101;23133;-67
2021/05/23 06:52:04;;;;;;;4.43;1.75;;;;;;;17.39;57.93;99424.58;129920;1101;22603;-66
2021/05/23 06:54:33;;;;;;;2.78;1.30;;;;;;;17.36;57.43;99417.73;129994;1101;23289;-66
2021/05/23 06:57:04;;;;;;;3.00;1.68;;;;;;;17.37;57.24;99426.82;129942;1101;22578;-67
2021/05/23 06:59:32;;;;;;;3.33;1.70;;;;;;;17.37;57.12;99424.88;129714;1102;23163;-67
2021/05/23 07:02:00;;;;;;;2.75;1.50;;;;;;;17.39;57.93;99421.83;129935;1101;22572;-67
2021/05/23 07:04:29;;;;;;;2.20;1.73;;;;;;;17.40;57.86;99421.52;129964;1101;22542;-66
2021/05/23 07:06:57;;;;;;;1.90;1.60;;;;;;;17.42;58.14;99426.73;126519;1096;27247;-66
2021/05/23 07:09:26;;;;;;;2.43;1.53;;;;;;;17.44;58.07;99430.00;129886;1101;23449;-67
2021/05/23 07:11:54;;;;;;;2.28;1.50;;;;;;;17.47;58.14;99430.19;129978;1101;22590;-67
2021/05/23 07:14:23;;;;;;;5.33;1.78;;;;;;;17.50;57.25;99426.83;129884;1101;26420;-66
2021/05/23 07:16:53;;;;;;;4.90;1.50;;;;;;;17.55;56.99;99423.98;129965;1101;22542;-67
2021/05/23 07:19:22;;;;;;;1.98;1.28;;;;;;;17.58;57.13;99420.62;129950;1101;22608;-66
2021/05/23 07:21:50;;;;;;;2.13;1.43;;;;;;;17.61;56.61;99417.23;129984;1101;22536;-67
2021/05/23 07:24:18;;;;;;;3.08;1.63;;;;;;;17.64;56.30;99415.83;129955;1101;23222;-67
2021/05/23 07:26:48;;;;;;;1.85;1.38;;;;;;;17.65;56.50;99423.80;129974;1101;23574;-67
2021/05/23 07:29:16;;;;;;;2.35;1.60;;;;;;;17.68;57.51;99422.37;129980;1101;23681;-67
2021/05/23 07:31:44;;;;;;;3.80;1.95;;;;;;;17.72;57.22;99409.62;129992;1101;22588;-67
2021/05/23 07:34:13;;;;;;;4.80;1.95;;;;;;;17.76;56.45;99424.39;129924;1101;22554;-67
2021/05/23 07:36:41;;;;;;;2.70;1.40;;;;;;;17.77;55.72;99422.45;127099;1101;22814;-66
2021/05/23 07:39:10;;;;;;;2.20;1.70;;;;;;;17.72;54.50;99428.09;125411;1101;24559;-67
2021/05/23 07:41:38;;;;;;;2.33;1.60;;;;;;;17.64;54.68;99415.83;129852;1101;23678;-67
2021/05/23 07:44:07;;;;;;;2.75;2.10;;;;;;;17.59;54.86;99426.95;129951;1101;22573;-68
2021/05/23 07:46:35;;;;;;;2.43;1.38;;;;;;;17.57;55.05;99415.41;129950;1101;22609;-67
2021/05/23 07:49:04;;;;;;;3.63;1.70;;;;;;;17.54;55.13;99416.02;129949;1101;22642;-67
2021/05/23 07:51:32;;;;;;;2.55;1.38;;;;;;;17.52;55.57;99419.08;130023;1101;22606;-67
2021/05/23 07:54:03;;;;;;;2.18;1.55;;;;;;;17.53;55.63;99417.14;129946;1101;22585;-67
2021/05/23 07:56:32;;;;;;;3.98;1.60;;;;;;;17.56;56.00;99411.02;129967;1101;23172;-67
2021/05/23 07:59:00;;;;;;;5.00;1.63;;;;;;;17.63;55.09;99414.16;129965;1101;22648;-67
2021/05/23 08:01:29;;;;;;;1.60;1.30;;;;;;;17.68;55.43;99416.86;129975;1101;22559;-67
2021/05/23 08:03:57;;;;;;;6.08;1.63;;;;;;;17.72;53.44;99417.06;129984;1101;23195;-67
2021/05/23 08:06:27;;;;;;;3.13;1.45;;;;;;;17.74;52.79;99418.40;129926;1101;22556;-67
2021/05/23 08:08:55;;;;;;;2.08;1.40;;;;;;;17.76;52.24;99418.06;129998;1101;22601;-67
2021/05/23 08:11:24;;;;;;;3.83;1.40;;;;;;;17.76;52.60;99418.88;129913;1101;23237;-67
2021/05/23 08:13:54;;;;;;;3.80;1.20;;;;;;;17.80;52.95;99430.93;129975;1101;22611;-67
2021/05/23 08:16:22;;;;;;;1.88;1.40;;;;;;;17.86;52.79;99428.89;129958;1101;22539;-67
2021/05/23 08:18:51;;;;;;;2.50;1.50;;;;;;;17.92;53.78;99433.16;129978;1101;23449;-68
2021/05/23 08:21:19;;;;;;;3.48;1.48;;;;;;;17.99;53.36;99431.63;129960;1101;22663;-67
2021/05/23 08:23:57;;;;;;;3.18;1.25;;;;;;;18.08;52.55;99433.64;129988;1101;22574;-67
2021/05/23 08:26:25;;;;;;;6.10;1.40;;;;;;;18.16;52.21;99438.44;129927;1101;23307;-67
2021/05/23 08:28:54;;;;;;;3.73;1.53;;;;;;;18.22;51.90;99437.18;130003;1101;22574;-67
2021/05/23 08:31:40;;;;;;;2.80;1.50;;;;;;;18.26;51.19;99441.78;129965;1101;22566;-67
2021/05/23 08:34:08;;;;;;;2.43;1.60;;;;;;;18.31;50.40;99454.64;129953;1101;22550;-67
2021/05/23 08:36:37;;;;;;;2.65;1.30;;;;;;;18.35;51.36;99453.69;129969;1101;22569;-67
2021/05/23 08:39:05;;;;;;;4.28;1.43;;;;;;;18.39;49.50;99448.38;129939;1101;22583;-67
2021/05/23 08:41:34;;;;;;;3.00;1.38;;;;;;;18.37;49.05;99445.11;129931;1101;22684;-67
2021/05/23 08:44:02;;;;;;;3.23;1.73;;;;;;;18.33;50.40;99438.57;130016;1101;22592;-67
2021/05/23 08:46:32;;;;;;;5.20;1.15;;;;;;;18.35;51.14;99444.59;129968;1101;22697;-63
2021/05/23 08:49:01;;;;;;;3.73;1.45;;;;;;;18.41;50.63;99443.37;129954;1101;22640;-63
2021/05/23 08:51:29;;;;;;;5.05;1.50;;;;;;;18.49;50.22;99441.80;129961;1101;22658;-63
2021/05/23 08:53:57;;;;;;;8.90;1.70;;;;;;;18.53;49.47;99451.91;129951;1101;22607;-63
2021/05/23 08:56:25;;;;;;;3.85;1.75;;;;;;;18.55;49.88;99441.38;129932;1101;23334;-63
2021/05/23 08:58:54;;;;;;;3.53;1.30;;;;;;;18.59;49.39;99441.61;130043;1101;22656;-63
2021/05/23 09:01:26;;;;;;;2.68;1.18;;;;;;;18.60;48.49;99444.05;129979;1101;22558;-63
2021/05/23 09:03:58;;;;;;;2.30;1.18;;;;;;;18.61;48.12;99442.11;129832;1101;22567;-63
2021/05/23 09:06:31;;;;;;;4.25;1.30;;;;;;;18.61;48.52;99439.35;129975;1101;23361;-63
2021/05/23 09:09:11;;;;;;;2.78;1.28;;;;;;;18.62;47.60;99430.73;129943;1101;22671;-63
2021/05/23 09:12:01;;;;;;;1.23;1.10;;;;;;;18.63;47.68;99426.84;130316;1098;22606;-64
2021/05/23 09:14:34;;;;;;;1.35;1.10;;;;;;;18.67;47.89;99433.38;130376;1098;22729;-63
2021/05/23 09:17:04;;;;;;;6.28;1.38;;;;;;;18.72;47.74;99421.41;126912;1098;22904;-66
2021/05/23 09:19:41;;;;;;;3.20;1.50;;;;;;;18.77;47.66;99431.48;130308;1097;23151;-67
2021/05/23 09:22:15;;;;;;;1.50;1.25;;;;;;;18.80;47.15;99430.86;130392;1097;22690;-67
2021/05/23 09:24:57;;;;;;;1.58;1.03;;;;;;;18.82;46.50;99434.13;130367;1098;23393;-67
2021/05/23 09:27:28;;;;;;;2.43;1.33;;;;;;;18.85;47.04;99433.50;130335;1098;22573;-67
2021/05/23 09:30:00;;;;;;;2.60;1.53;;;;;;;18.89;46.15;99434.52;130393;1098;22767;-67
2021/05/23 09:32:29;;;;;;;4.75;1.50;;;;;;;18.96;46.52;99424.64;130357;1097;22542;-67
2021/05/23 09:35:04;;;;;;;4.05;1.65;;;;;;;19.01;46.06;99429.23;130319;1097;23828;-67
2021/05/23 09:37:32;;;;;;;2.93;0.98;;;;;;;19.07;45.26;99422.42;130350;1097;22608;-67
2021/05/23 09:40:01;;;;;;;3.13;1.10;;;;;;;19.13;45.14;99425.88;130334;1098;22562;-67
2021/05/23 09:42:29;;;;;;;3.98;1.63;;;;;;;19.17;45.21;99433.22;130371;1098;23355;-67
2021/05/23 09:45:00;;;;;;;2.45;1.23;;;;;;;19.20;45.51;99427.04;130331;1098;22547;-67
2021/05/23 09:47:29;;;;;;;2.55;1.35;;;;;;;19.24;45.57;99422.52;130379;1098;22554;-67
2021/05/23 09:49:58;;;;;;;2.38;1.35;;;;;;;19.29;45.93;99427.10;130333;1098;22827;-67
2021/05/23 09:52:33;;;;;;;3.25;1.40;;;;;;;19.32;45.44;99420.95;130400;1098;22608;-67
2021/05/23 09:55:03;;;;;;;2.78;1.50;;;;;;;19.36;45.56;99428.26;130327;1098;22516;-67
2021/05/23 09:57:32;;;;;;;3.58;2.18;;;;;;;19.40;45.05;99412.68;130357;1097;22538;-67
2021/05/23 10:00:07;;;;;;;1.98;1.40;;;;;;;19.45;43.64;99417.27;130279;1097;22552;-67
2021/05/23 10:02:56;;;;;;;4.28;1.48;;;;;;;19.49;44.52;99429.31;130367;1097;23278;-66
2021/05/23 10:05:24;;;;;;;3.20;1.55;;;;;;;19.53;44.61;99421.20;130331;1098;22599;-66
2021/05/23 10:07:54;;;;;;;5.98;1.60;;;;;;;19.56;43.61;99420.58;130349;1098;22578;-67
2021/05/23 10:10:26;;;;;;;2.85;1.25;;;;;;;19.57;43.40;99427.73;130346;1098;22508;-67
2021/05/23 10:12:56;;;;;;;6.63;1.15;;;;;;;19.58;42.88;99429.37;130383;1097;22597;-67
2021/05/23 10:15:24;;;;;;;2.55;1.50;;;;;;;19.58;43.12;99421.89;130328;1098;22554;-67
2021/05/23 10:17:57;;;;;;;2.68;1.30;;;;;;;19.59;42.84;99439.29;130418;1097;22533;-66
2021/05/23 10:20:27;;;;;;;2.03;1.30;;;;;;;19.59;42.75;99433.77;130303;1098;22554;-67
2021/05/23 10:22:58;;;;;;;4.78;1.65;;;;;;;19.61;42.11;99425.97;130369;1098;23424;-67
2021/05/23 10:25:26;;;;;;;7.13;1.60;;;;;;;19.65;42.72;99415.88;130306;1098;22510;-66
2021/05/23 10:27:55;;;;;;;4.70;1.30;;;;;;;19.69;42.20;99416.88;130379;1098;22512;-66
2021/05/23 10:30:23;;;;;;;5.68;1.30;;;;;;;19.73;42.96;99420.64;130323;1098;22565;-67
2021/05/23 10:32:52;;;;;;;4.73;1.35;;;;;;;19.76;42.42;99426.31;130370;1097;22547;-66
2021/05/23 10:35:25;;;;;;;4.55;1.40;;;;;;;19.82;42.21;99420.65;130338;1098;22493;-66
2021/05/23 10:38:07;;;;;;;1.70;1.28;;;;;;;19.85;42.58;99428.31;130352;1097;22691;-67
2021/05/23 10:40:36;;;;;;;2.75;1.58;;;;;;;19.88;42.67;99422.14;130315;1098;23202;-66
2021/05/23 10:43:05;;;;;;;9.03;1.93;;;;;;;19.92;42.27;99418.39;130344;1097;22538;-67
2021/05/23 10:45:45;;;;;;;3.75;2.03;;;;;;;19.96;41.94;99419.38;130309;1098;22567;-67
2021/05/23 10:48:18;;;;;;;4.38;1.33;;;;;;;19.99;42.19;99427.04;130344;1097;22525;-66
2021/05/23 10:50:55;;;;;;;2.08;1.50;;;;;;;20.03;42.60;99429.98;130329;1097;22597;-67
2021/05/23 10:53:34;;;;;;;4.03;1.30;;;;;;;20.06;42.21;99429.31;130321;1097;22542;-67
2021/05/23 10:56:02;;;;;;;2.10;1.08;;;;;;;20.07;41.53;99431.76;130311;1098;22527;-66
2021/05/23 10:58:31;;;;;;;2.25;1.30;;;;;;;20.07;41.73;99428.18;130405;1097;22653;-67
2021/05/23 11:01:00;;;;;;;4.28;1.40;;;;;;;20.08;41.73;99421.52;130304;1098;22600;-67
2021/05/23 11:03:28;;;;;;;6.15;1.60;;;;;;;20.08;42.92;99422.33;130344;1098;23151;-66
2021/05/23 11:06:07;;;;;;;6.23;1.73;;;;;;;20.11;41.39;99410.63;130387;1098;22582;-66
2021/05/23 11:08:37;;;;;;;2.63;1.35;;;;;;;20.15;41.30;99413.56;130307;1098;23136;-67
2021/05/23 11:11:05;;;;;;;2.85;1.25;;;;;;;20.16;40.68;99417.95;130352;1098;22692;-67
2021/05/23 11:13:37;;;;;;;2.03;1.20;;;;;;;20.16;40.90;99417.95;130349;1098;22611;-66
2021/05/23 11:16:11;;;;;;;2.68;1.48;;;;;;;20.15;40.53;99423.81;130364;1098;22679;-67
2021/05/23 11:18:41;;;;;;;3.85;1.40;;;;;;;20.11;41.45;99416.16;130357;1098;23385;-67
2021/05/23 11:21:13;;;;;;;4.15;2.00;;;;;;;20.12;41.81;99416.97;130380;1097;22583;-66
2021/05/23 11:23:48;;;;;;;3.40;2.48;;;;;;;20.11;40.91;99427.22;130327;1098;22577;-67
2021/05/23 11:26:18;;;;;;;2.75;1.60;;;;;;;20.09;41.15;99429.48;128145;1098;22758;-67
2021/05/23 11:28:48;;;;;;;3.25;1.60;;;;;;;20.07;41.45;99433.71;125540;1098;22801;-67
2021/05/23 11:31:26;;;;;;;6.83;1.53;;;;;;;20.03;41.13;99436.33;129891;1098;23555;-67
2021/05/23 11:33:55;;;;;;;1.88;1.30;;;;;;;20.01;41.78;99432.25;130149;1098;22585;-67
2021/05/23 11:36:29;;;;;;;2.88;1.40;;;;;;;19.96;41.39;99419.38;130381;1098;22631;-67
2021/05/23 11:39:04;;;;;;;5.80;1.30;;;;;;;19.92;41.76;99434.98;130351;1098;22584;-67
2021/05/23 11:41:34;;;;;;;1.95;1.30;;;;;;;19.87;40.64;99440.68;130336;1098;23484;-68